createdAt,value
2017-11-08T00:02:01.182Z,93966.56
2017-11-08T00:04:28.893Z,93966.31
2017-11-08T00:06:56.625Z,93963.93
2017-11-08T00:09:24.334Z,93974.09
2017-11-08T00:11:52.042Z,93972.27
2017-11-08T00:14:19.725Z,93966.34
2017-11-08T00:16:47.450Z,93964.05
2017-11-08T00:19:15.174Z,93977.53
2017-11-08T00:21:45.386Z,93970.11
2017-11-08T00:24:13.129Z,93977.50
2017-11-08T00:26:40.811Z,93983.04
2017-11-08T00:29:08.538Z,93987.20
2017-11-08T00:31:36.287Z,93985.46
2017-11-08T00:34:04.001Z,93976.95
2017-11-08T00:36:31.731Z,93978.06
2017-11-08T00:38:59.419Z,93977.61
2017-11-08T00:41:27.183Z,93966.23
2017-11-08T00:43:54.859Z,93967.30
2017-11-08T00:46:22.647Z,93967.91
2017-11-08T00:48:50.385Z,93977.68
2017-11-08T00:51:18.370Z,93974.59
2017-11-08T00:53:46.094Z,93971.31
2017-11-08T00:56:13.979Z,93965.92
2017-11-08T00:58:41.661Z,93965.98
2017-11-08T01:01:09.510Z,93959.17
2017-11-08T01:03:37.176Z,93962.55
2017-11-08T01:06:04.858Z,93969.55
2017-11-08T01:08:33.541Z,93975.86
2017-11-08T01:11:01.217Z,93979.16
2017-11-08T01:13:28.911Z,93978.63
2017-11-08T01:15:56.682Z,93983.72
2017-11-08T01:18:24.386Z,93980.71
2017-11-08T01:20:52.115Z,93989.73
2017-11-08T01:23:19.790Z,93992.26
2017-11-08T01:25:47.508Z,93985.74
2017-11-08T01:28:15.239Z,93982.48
2017-11-08T01:30:42.960Z,93975.66
2017-11-08T01:33:10.707Z,93972.64
2017-11-08T01:35:38.416Z,93974.69
2017-11-08T01:38:11.815Z,93973.22
2017-11-08T01:40:44.876Z,93969.45
2017-11-08T01:43:12.590Z,93973.30
2017-11-08T01:45:42.311Z,93974.02
2017-11-08T01:48:09.989Z,93969.52
2017-11-08T01:50:39.687Z,93959.69
2017-11-08T01:53:07.365Z,93957.16
2017-11-08T01:55:39.047Z,93965.19
2017-11-08T01:58:06.924Z,93963.16
2017-11-08T02:00:34.707Z,93965.66
2017-11-08T02:03:02.512Z,93965.54
2017-11-08T02:05:30.450Z,93972.36
2017-11-08T02:07:58.129Z,93975.42
2017-11-08T02:10:26.607Z,93978.88
2017-11-08T02:12:54.331Z,93976.85
2017-11-08T02:15:22.129Z,93975.97
2017-11-08T02:17:52.620Z,93975.62
2017-11-08T02:20:20.433Z,93977.03
2017-11-08T02:22:48.236Z,93976.17
2017-11-08T02:25:15.990Z,93971.82
2017-11-08T02:27:43.888Z,93973.39
2017-11-08T02:30:11.631Z,93967.45
2017-11-08T02:32:46.114Z,93982.03
2017-11-08T02:35:14.070Z,93983.59
2017-11-08T02:37:41.755Z,93978.37
2017-11-08T02:40:09.510Z,93975.71
2017-11-08T02:42:37.215Z,93975.71
2017-11-08T02:45:07.674Z,93972.53
2017-11-08T02:47:35.544Z,93978.19
2017-11-08T02:50:03.284Z,93960.53
2017-11-08T02:52:31.080Z,93965.88
2017-11-08T02:55:03.659Z,93970.53
2017-11-08T02:57:31.334Z,93972.83
2017-11-08T02:59:59.073Z,93972.70
2017-11-08T03:02:30.677Z,93975.75
2017-11-08T03:07:51.976Z,93974.38
2017-11-08T03:10:24.449Z,93972.13
2017-11-08T03:12:52.755Z,93978.28
2017-11-08T03:15:22.396Z,93974.12
2017-11-08T03:17:51.249Z,93964.20
2017-11-08T03:20:18.947Z,93961.18
2017-11-08T03:22:46.669Z,93976.86
2017-11-08T03:25:14.427Z,93978.45
2017-11-08T03:27:42.290Z,93982.63
2017-11-08T03:30:10.020Z,93976.86
2017-11-08T03:32:37.794Z,93982.05
2017-11-08T03:35:13.555Z,93992.98
2017-11-08T03:37:41.406Z,94006.28
2017-11-08T03:40:09.170Z,94011.49
2017-11-08T03:42:37.072Z,94009.33
2017-11-08T03:45:04.895Z,94004.41
2017-11-08T03:47:32.647Z,94010.70
2017-11-08T03:50:00.499Z,94011.14
2017-11-08T03:52:28.175Z,94007.28
2017-11-08T03:54:55.862Z,94008.18
2017-11-08T03:57:23.574Z,94007.06
2017-11-08T03:59:51.310Z,94005.65
2017-11-08T04:02:19.011Z,94011.28
2017-11-08T04:04:47.414Z,94004.94
2017-11-08T04:07:15.156Z,94002.63
2017-11-08T04:09:42.920Z,94014.88
2017-11-08T04:12:11.120Z,94013.81
2017-11-08T04:14:38.811Z,94016.72
2017-11-08T04:17:06.590Z,94014.20
2017-11-08T04:19:34.969Z,94017.03
2017-11-08T04:22:02.746Z,94008.30
2017-11-08T04:24:30.625Z,94010.22
2017-11-08T04:26:58.348Z,94003.26
2017-11-08T04:29:26.052Z,94002.91
2017-11-08T04:31:53.829Z,94000.38
2017-11-08T04:34:21.549Z,94002.46
2017-11-08T04:36:49.297Z,93994.75
2017-11-08T04:39:16.976Z,93996.48
2017-11-08T04:41:44.709Z,93997.77
2017-11-08T04:44:12.706Z,93991.55
2017-11-08T04:46:40.467Z,93994.58
2017-11-08T04:49:08.185Z,93999.35
2017-11-08T04:51:35.873Z,93988.51
2017-11-08T04:54:03.647Z,93988.12
2017-11-08T04:56:31.354Z,93993.91
2017-11-08T04:58:59.187Z,94002.28
2017-11-08T05:01:26.866Z,93997.59
2017-11-08T05:03:54.547Z,94010.39
2017-11-08T05:06:22.315Z,94012.61
2017-11-08T05:08:50.995Z,94013.72
2017-11-08T05:11:18.747Z,94009.91
2017-11-08T05:13:46.761Z,94024.70
2017-11-08T05:16:14.544Z,94014.38
2017-11-08T05:18:42.258Z,94020.09
2017-11-08T05:21:10.002Z,94026.23
2017-11-08T05:23:38.643Z,94029.25
2017-11-08T05:26:06.352Z,94030.48
2017-11-08T05:28:35.172Z,94031.43
2017-11-08T05:31:04.363Z,94034.66
2017-11-08T05:33:32.039Z,94034.70
2017-11-08T05:35:59.736Z,94030.78
2017-11-08T05:38:27.524Z,94033.75
2017-11-08T05:40:55.259Z,94034.75
2017-11-08T05:43:23.098Z,94028.56
2017-11-08T05:45:51.661Z,94036.14
2017-11-08T05:48:19.494Z,94033.97
2017-11-08T05:50:47.214Z,94024.13
2017-11-08T05:53:14.905Z,94023.19
2017-11-08T05:55:42.661Z,94021.11
2017-11-08T05:58:10.381Z,94008.30
2017-11-08T06:00:38.162Z,94016.50
2017-11-08T06:03:05.865Z,94007.28
2017-11-08T06:05:33.601Z,94014.30
2017-11-08T06:08:01.284Z,94016.64
2017-11-08T06:10:29.916Z,94018.00
2017-11-08T06:12:57.643Z,94018.40
2017-11-08T06:15:25.354Z,94016.81
2017-11-08T06:17:53.024Z,94017.91
2017-11-08T06:20:20.782Z,94022.66
2017-11-08T06:22:48.453Z,94033.78
2017-11-08T06:25:16.195Z,94036.79
2017-11-08T06:27:43.962Z,94033.56
2017-11-08T06:30:11.767Z,94039.10
2017-11-08T06:32:39.508Z,94037.77
2017-11-08T06:35:07.227Z,94039.98
2017-11-08T06:37:34.933Z,94038.20
2017-11-08T06:40:02.717Z,94040.24
2017-11-08T06:42:30.436Z,94046.00
2017-11-08T06:44:58.138Z,94043.48
2017-11-08T06:47:26.521Z,94041.84
2017-11-08T06:49:54.254Z,94052.69
2017-11-08T06:52:21.964Z,94049.42
2017-11-08T06:54:49.707Z,94051.86
2017-11-08T06:57:22.292Z,94048.31
2017-11-08T06:59:50.048Z,94040.30
2017-11-08T07:02:18.055Z,94047.83
2017-11-08T07:04:45.789Z,94049.69
2017-11-08T07:07:14.362Z,94052.92
2017-11-08T07:09:42.088Z,94060.59
2017-11-08T07:12:09.823Z,94062.05
2017-11-08T07:14:37.514Z,94063.95
2017-11-08T07:17:06.259Z,94058.98
2017-11-08T07:19:33.987Z,94056.64
2017-11-08T07:22:01.988Z,94055.63
2017-11-08T07:24:29.718Z,94057.43
2017-11-08T07:26:57.401Z,94048.29
2017-11-08T07:29:25.182Z,94052.45
2017-11-08T07:31:52.882Z,94038.22
2017-11-08T07:34:21.914Z,94039.05
2017-11-08T07:36:50.488Z,94039.73
2017-11-08T07:39:18.235Z,94036.80
2017-11-08T07:41:47.073Z,94037.42
2017-11-08T07:44:14.843Z,94036.88
2017-11-08T07:46:42.524Z,94041.37
2017-11-08T07:49:10.302Z,94033.75
2017-11-08T07:51:38.110Z,94033.41
2017-11-08T07:54:11.373Z,94039.80
2017-11-08T07:56:39.048Z,94041.03
2017-11-08T07:59:06.839Z,94038.95
2017-11-08T08:01:34.597Z,94031.08
2017-11-08T08:04:02.321Z,94033.73
2017-11-08T08:06:30.093Z,94026.63
2017-11-08T08:08:57.903Z,94024.86
2017-11-08T08:11:25.750Z,94021.89
2017-11-08T08:14:00.168Z,94020.81
2017-11-08T08:16:27.923Z,94024.15
2017-11-08T08:18:55.681Z,94018.63
2017-11-08T08:21:24.423Z,94016.06
2017-11-08T08:23:52.161Z,94014.10
2017-11-08T08:29:21.880Z,94017.41
2017-11-08T08:31:49.894Z,94021.71
2017-11-08T08:34:17.695Z,94015.59
2017-11-08T08:36:45.898Z,94012.98
2017-11-08T08:39:13.701Z,94016.42
2017-11-08T08:41:41.476Z,94018.27
2017-11-08T08:44:09.884Z,94019.09
2017-11-08T08:46:37.685Z,94021.60
2017-11-08T08:49:05.453Z,94022.49
2017-11-08T08:51:33.146Z,94025.80
2017-11-08T08:54:00.911Z,94024.48
2017-11-08T08:56:28.618Z,94026.11
2017-11-08T08:58:56.463Z,94020.19
2017-11-08T09:01:24.174Z,94020.41
2017-11-08T09:03:51.923Z,94022.48
2017-11-08T09:06:19.884Z,94030.48
2017-11-08T09:08:47.606Z,94036.25
2017-11-08T09:11:15.327Z,94036.03
2017-11-08T09:13:43.025Z,94039.95
2017-11-08T09:16:10.825Z,94040.50
2017-11-08T09:18:38.524Z,94047.77
2017-11-08T09:21:06.422Z,94045.59
2017-11-08T09:23:34.225Z,94042.89
2017-11-08T09:26:02.959Z,94045.98
2017-11-08T09:28:30.673Z,94041.85
2017-11-08T09:30:59.453Z,94034.72
2017-11-08T09:33:28.061Z,94033.86
2017-11-08T09:35:55.849Z,94037.44
2017-11-08T09:38:23.703Z,94046.75
2017-11-08T09:40:51.426Z,94046.45
2017-11-08T09:43:22.170Z,94051.41
2017-11-08T09:45:49.997Z,94040.75
2017-11-08T09:48:17.758Z,94038.59
2017-11-08T09:50:45.537Z,94046.78
2017-11-08T09:53:13.310Z,94041.82
2017-11-08T09:55:43.835Z,94043.41
2017-11-08T09:58:11.611Z,94038.36
2017-11-08T10:00:41.339Z,94041.23
2017-11-08T10:03:09.327Z,94032.57
2017-11-08T10:05:37.113Z,94029.27
2017-11-08T10:08:05.708Z,94025.48
2017-11-08T10:10:34.399Z,94028.61
2017-11-08T10:13:07.680Z,94031.84
2017-11-08T10:15:36.526Z,94034.02
2017-11-08T10:18:04.286Z,94030.67
2017-11-08T10:20:32.109Z,94031.06
2017-11-08T10:23:01.687Z,94031.25
2017-11-08T10:25:29.369Z,94026.33
2017-11-08T10:27:57.128Z,94024.14
2017-11-08T10:30:24.941Z,94033.47
2017-11-08T10:32:52.626Z,94034.22
2017-11-08T10:35:20.456Z,94034.15
2017-11-08T10:37:48.208Z,94037.92
2017-11-08T10:40:16.154Z,94034.52
2017-11-08T10:42:43.826Z,94028.97
2017-11-08T10:45:11.606Z,94027.98
2017-11-08T10:47:39.318Z,94022.41
2017-11-08T10:50:07.141Z,94016.27
2017-11-08T10:55:33.636Z,94022.87
2017-11-08T10:58:01.462Z,94028.55
2017-11-08T11:00:33.066Z,94032.83
2017-11-08T11:03:00.974Z,94037.58
2017-11-08T11:05:28.804Z,94029.89
2017-11-08T11:07:56.593Z,94031.20
2017-11-08T11:10:24.378Z,94044.62
2017-11-08T11:12:52.115Z,94049.06
2017-11-08T11:15:19.964Z,94052.70
2017-11-08T11:17:48.221Z,94045.64
2017-11-08T11:20:18.774Z,94044.47
2017-11-08T11:22:47.044Z,94040.16
2017-11-08T11:25:17.616Z,94039.34
2017-11-08T11:27:45.458Z,94037.53
2017-11-08T11:30:13.206Z,94025.25
2017-11-08T11:32:43.854Z,94017.23
2017-11-08T11:35:11.655Z,94011.38
2017-11-08T11:37:54.087Z,94018.31
2017-11-08T11:40:21.914Z,94024.14
2017-11-08T11:42:50.247Z,94021.86
2017-11-08T11:45:18.074Z,94022.36
2017-11-08T11:47:46.227Z,94032.57
2017-11-08T11:50:13.949Z,94040.34
2017-11-08T11:52:41.777Z,94035.30
2017-11-08T11:55:09.557Z,94032.23
2017-11-08T11:57:37.405Z,94027.77
2017-11-08T12:00:05.317Z,94023.55
2017-11-08T12:02:33.188Z,94022.54
2017-11-08T12:05:01.071Z,94021.56
2017-11-08T12:07:28.893Z,94022.86
2017-11-08T12:09:56.848Z,94017.89
2017-11-08T12:12:24.615Z,94018.51
2017-11-08T12:14:52.424Z,94008.88
2017-11-08T12:17:20.158Z,94014.14
2017-11-08T12:19:47.871Z,94009.58
2017-11-08T12:22:16.319Z,94007.67
2017-11-08T12:24:44.118Z,94002.22
2017-11-08T12:27:14.425Z,94007.66
2017-11-08T12:29:42.250Z,94000.88
2017-11-08T12:32:10.933Z,93999.61
2017-11-08T12:34:39.572Z,93994.84
2017-11-08T12:37:07.676Z,93994.02
2017-11-08T12:39:35.630Z,93996.03
2017-11-08T12:42:04.338Z,94004.67
2017-11-08T12:44:32.935Z,94009.02
2017-11-08T12:47:00.657Z,94013.09
2017-11-08T12:49:28.541Z,94008.81
2017-11-08T12:51:56.373Z,94008.98
2017-11-08T12:54:24.471Z,94005.39
2017-11-08T12:56:52.314Z,94018.81
2017-11-08T12:59:20.900Z,94020.59
2017-11-08T13:01:49.474Z,94019.08
2017-11-08T13:04:17.731Z,94013.50
2017-11-08T13:06:46.407Z,94020.97
2017-11-08T13:09:16.287Z,94026.17
2017-11-08T13:11:44.059Z,94024.24
2017-11-08T13:14:13.664Z,94023.14
2017-11-08T13:16:41.462Z,94022.24
2017-11-08T13:19:09.305Z,94013.88
2017-11-08T13:21:37.115Z,94017.87
2017-11-08T13:24:04.993Z,94009.23
2017-11-08T13:26:32.911Z,94012.36
2017-11-08T13:29:03.723Z,94005.23
2017-11-08T13:31:33.097Z,94012.30
2017-11-08T13:34:00.978Z,94019.35
2017-11-08T13:36:28.785Z,94026.11
2017-11-08T13:38:59.627Z,94031.48
2017-11-08T13:41:27.524Z,94024.28
2017-11-08T13:43:55.388Z,94032.44
2017-11-08T13:46:23.245Z,94042.98
2017-11-08T13:48:51.077Z,94034.27
2017-11-08T13:51:19.439Z,94033.23
2017-11-08T13:53:47.710Z,94033.93
2017-11-08T13:56:15.698Z,94033.13
2017-11-08T13:58:43.600Z,94036.22
2017-11-08T14:01:11.904Z,94039.80
2017-11-08T14:03:39.771Z,94036.52
2017-11-08T14:06:07.575Z,94035.42
2017-11-08T14:08:35.404Z,94040.89
2017-11-08T14:11:04.234Z,94039.20
2017-11-08T14:13:32.044Z,94041.69
2017-11-08T14:16:00.213Z,94040.13
2017-11-08T14:18:28.456Z,94043.20
2017-11-08T14:20:56.314Z,94045.78
2017-11-08T14:23:24.113Z,94053.73
2017-11-08T14:25:53.161Z,94058.33
2017-11-08T14:28:21.448Z,94061.13
2017-11-08T14:30:49.439Z,94063.98
2017-11-08T14:33:17.205Z,94058.34
2017-11-08T14:35:45.548Z,94059.22
2017-11-08T14:38:14.689Z,94056.73
2017-11-08T14:40:42.999Z,94066.47
2017-11-08T14:43:11.238Z,94068.05
2017-11-08T14:45:39.940Z,94074.42
2017-11-08T14:48:07.836Z,94079.70
2017-11-08T14:50:35.714Z,94079.30
2017-11-08T14:53:08.543Z,94084.77
2017-11-08T14:55:36.765Z,94089.03
2017-11-08T14:58:05.762Z,94093.39
2017-11-08T15:00:34.360Z,94099.07
2017-11-08T15:03:02.236Z,94096.59
2017-11-08T15:05:30.804Z,94102.44
2017-11-08T15:08:00.156Z,94104.63
2017-11-08T15:10:27.981Z,94101.93
2017-11-08T15:12:55.812Z,94110.17
2017-11-08T15:15:23.560Z,94099.75
2017-11-08T15:17:51.335Z,94101.63
2017-11-08T15:20:23.977Z,94101.95
2017-11-08T15:22:51.816Z,94106.91
2017-11-08T15:25:19.584Z,94104.61
2017-11-08T15:27:47.370Z,94102.05
2017-11-08T15:30:21.511Z,94105.12
2017-11-08T15:32:49.277Z,94106.59
2017-11-08T15:35:17.062Z,94106.09
2017-11-08T15:37:46.768Z,94102.63
2017-11-08T15:40:32.143Z,94111.75
2017-11-08T15:43:00.769Z,94114.54
2017-11-08T15:45:29.171Z,94121.11
2017-11-08T15:47:56.990Z,94127.06
2017-11-08T15:50:24.794Z,94130.13
2017-11-08T15:52:52.526Z,94129.14
2017-11-08T15:55:35.855Z,94131.81
2017-11-08T15:58:03.574Z,94133.81
2017-11-08T16:00:31.554Z,94138.48
2017-11-08T16:02:59.338Z,94149.09
2017-11-08T16:05:27.064Z,94146.61
2017-11-08T16:07:54.815Z,94147.71
2017-11-08T16:10:22.577Z,94151.48
2017-11-08T16:12:51.248Z,94149.09
2017-11-08T16:15:19.053Z,94158.62
2017-11-08T16:17:52.676Z,94158.09
2017-11-08T16:20:21.277Z,94154.72
2017-11-08T16:22:49.031Z,94159.50
2017-11-08T16:25:16.748Z,94156.32
2017-11-08T16:27:44.511Z,94160.80
2017-11-08T16:30:12.228Z,94158.62
2017-11-08T16:32:39.943Z,94161.38
2017-11-08T16:35:07.701Z,94165.34
2017-11-08T16:37:35.502Z,94168.00
2017-11-08T16:40:03.277Z,94171.38
2017-11-08T16:42:31.229Z,94167.63
2017-11-08T16:44:59.089Z,94172.58
2017-11-08T16:47:27.431Z,94182.09
2017-11-08T16:49:55.257Z,94188.33
2017-11-08T16:52:23.781Z,94185.33
2017-11-08T16:54:52.514Z,94187.30
2017-11-08T16:57:20.339Z,94192.09
2017-11-08T16:59:48.652Z,94189.49
2017-11-08T17:02:18.446Z,94193.06
2017-11-08T17:04:46.253Z,94197.80
2017-11-08T17:07:14.004Z,94201.00
2017-11-08T17:09:41.897Z,94200.41
2017-11-08T17:12:10.384Z,94202.19
2017-11-08T17:14:38.194Z,94199.04
2017-11-08T17:17:06.193Z,94199.53
2017-11-08T17:19:33.946Z,94206.95
2017-11-08T17:22:01.947Z,94210.83
2017-11-08T17:24:29.902Z,94208.43
2017-11-08T17:26:57.727Z,94210.53
2017-11-08T17:29:25.887Z,94208.52
2017-11-08T17:31:54.924Z,94212.50
2017-11-08T17:34:22.783Z,94212.38
2017-11-08T17:36:50.612Z,94216.75
2017-11-08T17:39:21.241Z,94218.53
2017-11-08T17:41:49.038Z,94223.97
2017-11-08T17:44:17.171Z,94222.47
2017-11-08T17:46:44.994Z,94232.23
2017-11-08T17:49:12.742Z,94231.55
2017-11-08T17:51:52.009Z,94237.41
2017-11-08T17:54:33.778Z,94230.08
2017-11-08T17:57:01.457Z,94223.93
2017-11-08T17:59:29.246Z,94225.95
2017-11-08T18:01:57.047Z,94224.44
2017-11-08T18:04:26.311Z,94234.39
2017-11-08T18:06:54.108Z,94239.69
2017-11-08T18:09:21.812Z,94244.66
2017-11-08T18:11:49.561Z,94247.19
2017-11-08T18:14:17.354Z,94243.72
2017-11-08T18:16:45.131Z,94247.22
2017-11-08T18:19:12.869Z,94237.72
2017-11-08T18:21:40.688Z,94242.77
2017-11-08T18:24:08.391Z,94237.78
2017-11-08T18:26:36.119Z,94238.77
2017-11-08T18:29:03.861Z,94241.36
2017-11-08T18:31:31.753Z,94242.03
2017-11-08T18:33:59.510Z,94248.58
2017-11-08T18:36:27.287Z,94257.42
2017-11-08T18:38:55.051Z,94257.52
2017-11-08T18:41:22.801Z,94252.13
2017-11-08T18:43:50.479Z,94261.85
2017-11-08T18:46:18.233Z,94260.45
2017-11-08T18:48:45.916Z,94260.96
2017-11-08T18:51:13.699Z,94263.75
2017-11-08T18:53:41.504Z,94260.68
2017-11-08T18:56:09.288Z,94261.38
2017-11-08T18:58:37.170Z,94265.84
2017-11-08T19:01:04.914Z,94268.02
2017-11-08T19:03:32.700Z,94278.98
2017-11-08T19:06:00.409Z,94277.28
2017-11-08T19:08:28.236Z,94281.86
2017-11-08T19:10:56.861Z,94273.72
2017-11-08T19:13:24.769Z,94281.53
2017-11-08T19:15:52.517Z,94281.90
2017-11-08T19:18:20.231Z,94284.72
2017-11-08T19:20:48.629Z,94290.86
2017-11-08T19:23:16.609Z,94284.78
2017-11-08T19:25:45.258Z,94294.30
2017-11-08T19:28:13.163Z,94293.69
2017-11-08T19:30:41.257Z,94295.41
2017-11-08T19:33:10.011Z,94299.64
2017-11-08T19:35:37.939Z,94301.83
2017-11-08T19:38:05.821Z,94304.92
2017-11-08T19:40:34.925Z,94306.06
2017-11-08T19:43:04.303Z,94311.72
2017-11-08T19:45:32.092Z,94307.84
2017-11-08T19:47:59.842Z,94314.20
2017-11-08T19:50:27.728Z,94317.27
2017-11-08T19:52:55.486Z,94317.09
2017-11-08T19:55:23.241Z,94317.58
2017-11-08T19:57:51.129Z,94320.03
2017-11-08T20:00:18.952Z,94329.73
2017-11-08T20:02:47.768Z,94322.52
2017-11-08T20:05:15.572Z,94327.25
2017-11-08T20:07:43.343Z,94329.37
2017-11-08T20:10:11.204Z,94327.31
2017-11-08T20:12:40.025Z,94319.23
2017-11-08T20:15:07.916Z,94322.61
2017-11-08T20:17:35.640Z,94319.64
2017-11-08T20:20:03.345Z,94320.25
2017-11-08T20:22:31.128Z,94330.69
2017-11-08T20:24:59.644Z,94324.85
2017-11-08T20:27:27.379Z,94323.84
2017-11-08T20:29:55.951Z,94330.47
2017-11-08T20:32:26.648Z,94329.66
2017-11-08T20:34:59.233Z,94331.88
2017-11-08T20:37:27.780Z,94332.88
2017-11-08T20:39:55.515Z,94337.23
2017-11-08T20:42:23.408Z,94336.20
2017-11-08T20:44:51.419Z,94332.55
2017-11-08T20:47:19.368Z,94334.55
2017-11-08T20:49:47.113Z,94329.58
2017-11-08T21:52:12.366Z,94343.45
2017-11-08T21:54:40.126Z,94349.19
2017-11-08T21:57:08.128Z,94349.05
2017-11-08T21:59:35.966Z,94350.73
2017-11-08T22:02:03.844Z,94352.06
2017-11-08T22:04:31.547Z,94352.59
2017-11-08T22:06:59.287Z,94363.44
2017-11-08T22:09:27.022Z,94356.01
2017-11-08T22:11:54.708Z,94356.49
2017-11-08T22:14:22.490Z,94355.04
2017-11-08T22:16:50.177Z,94349.97
2017-11-08T22:19:17.963Z,94356.77
2017-11-08T22:21:45.665Z,94362.59
2017-11-08T22:24:13.372Z,94355.56
2017-11-08T22:26:41.136Z,94354.68
2017-11-08T22:29:08.839Z,94353.08
2017-11-08T22:31:36.628Z,94357.66
2017-11-08T22:34:04.342Z,94361.34
2017-11-08T22:36:32.145Z,94361.65
2017-11-08T22:39:05.940Z,94368.77
2017-11-08T22:41:33.712Z,94368.77
2017-11-08T22:44:01.403Z,94369.97
2017-11-08T22:46:29.110Z,94364.91
2017-11-08T22:48:56.840Z,94368.73
2017-11-08T22:51:24.564Z,94369.74
2017-11-08T22:53:52.361Z,94367.20
2017-11-08T22:56:20.199Z,94366.68
2017-11-08T22:58:47.911Z,94368.90
2017-11-08T23:01:15.665Z,94369.48
2017-11-08T23:03:43.383Z,94369.61
2017-11-08T23:06:11.249Z,94371.39
2017-11-08T23:08:38.971Z,94373.34
2017-11-08T23:11:06.741Z,94365.44
2017-11-08T23:13:34.427Z,94369.52
2017-11-08T23:16:02.510Z,94366.23
2017-11-08T23:18:30.202Z,94370.81
2017-11-08T23:20:57.965Z,94365.97
2017-11-08T23:23:25.679Z,94367.87
2017-11-08T23:25:53.510Z,94367.03
2017-11-08T23:28:21.238Z,94369.98
2017-11-08T23:30:49.041Z,94371.88
2017-11-08T23:33:16.849Z,94364.31
2017-11-08T23:35:44.643Z,94370.77
2017-11-08T23:38:12.444Z,94369.52
2017-11-08T23:40:40.330Z,94374.64
2017-11-08T23:43:08.073Z,94371.45
2017-11-08T23:45:35.889Z,94368.16
2017-11-08T23:48:03.601Z,94373.58
2017-11-08T23:50:31.421Z,94370.33
2017-11-08T23:52:59.094Z,94370.69
2017-11-08T23:55:27.812Z,94370.25
2017-11-08T23:57:55.492Z,94375.70
